MET3421 - Oklahoma City to Kansas City

Bombardier Dash-8-Q400
857AG
1 hr 00 mins
272 nm
Scheduled - Daily

Bid/PiRep Status

Bid was submitted on Nov 01 2016.

PiRep # 73876: Approved by Dave Nichols on November 2nd, 2016 4:08 UTC

Departure

Departing from
Oklahoma City (OKC)
Departure gate
8
Scheduled Departure
GMT 1235
Local 0735
METAR KOKC 270752Z 13007KT 10SM CLR 22/20 A2978 RMK AO2 SLP067 T02220200
TAF KOKC 270520Z 2706/2806 07003KT P6SM SKC FM271000 16010KT P6SM BKN015 WS015/21040KT FM271600 19012G20KT P6SM SCT020 SCT150

Route Map

Planning Resources

KOKC,IRW,TUL,DOSOA,KMCI
KOKC VIA IRW IBAPE PER EMP JHAWK HOOZE RUGB NOHS KMCI
KOKC ICT UTEKE KMCI
LOKC DCT CNU STAR KMCI
KOKC-PER-EMP-TOP-KMCI
Route:
OFP Layout:
Units:
Detailed Navlog:
ETOPS Planning:
Plan Stepclimbs:
Runway Analysis:
Include NOTAMS:
FIR NOTAMS:
Flight Maps:

Return Flights

MET2281
Bombardier Dash-8-Q200
1400 GMT
MET2285
Bombardier Dash-8-Q200
2040 GMT
MET3420
Bombardier Dash-8-Q400
0125 GMT
MET3422
Bombardier Dash-8-Q400
1805 GMT

Popularity

Hub Current Bids PiReps this month Total PiReps
KMCI 0 1 88
KLAX 0 0 1
KBOS 0 0 0